Washington, NC

10:52 PM EDT on May 22, 2017 (GMT -0400)
Warren

Weather History for KOCW - January, 2013

Change the Weather History Date:

Saturday, January 5, 2013

  Actual Average (KPGV) Record (KPGV)
Temperature  
Mean Temperature 40 °F -  
Max Temperature 52 °F 51 °F 78 °F (2004)
Min Temperature 28 °F 31 °F 11 °F (1981)
Degree Days  
Heating Degree Days 25    
Moisture  
Dew Point 23 °F    
Average Humidity 54    
Maximum Humidity 81    
Minimum Humidity 20    
Precipitation  
Precipitation 0.00 in - - ()
Sea Level Pressure  
Sea Level Pressure 30.32 in    
Wind  
Wind Speed 2 mph (SE)    
Max Wind Speed 7 mph    
Max Gust Speed -    
Visibility 10 miles    
Events      
Averages and records for this station are not official NWS values.
T = Trace of Precipitation, MM = Missing Value Source: NWS Daily Summary

Daily Weather History Graph

Daily Weather History Graph

Search for Another Location

Airport or City:

Trip Planner

Search our weather history database for the weather conditions in past years. The results will help you decide how hot, cold, wet, or windy it might be!

Date:

Astronomy

Jan. 05, 2013 Rise Set
Actual Time 7:18 AM EST 5:09 PM EST
Civil Twilight 6:50 AM EST 5:37 PM EST
Nautical Twilight 6:18 AM EST 6:09 PM EST
Astronomical Twilight 5:47 AM EST 6:40 PM EST
Moon 12:29 AM EST (1/5) 11:51 AM EST (1/5)
Length of Visible Light 10h 47m
Length of Day
9h 51m
Last Quarter, 44% of the Moon is Illuminated
Jan 5
Last Quarter
Jan 11
New
Jan 18
First Quarter
Jan 26
Full
Feb 3
Last Quarter

Hourly Weather History & Observations

Time (EST) Temp. Windchill Dew Point Humidity Pressure Visibility Wind Dir Wind Speed Gust Speed Precip Events Conditions
12:15 AM 40.1 °F 38.0 °F 22.3 °F 49% 30.26 in 10.0 mi West 3.5 mph - N/A   Clear
12:35 AM 38.8 °F 34.6 °F 20.5 °F 48% 30.27 in 10.0 mi WNW 5.8 mph - N/A   Clear
12:55 AM 37.8 °F 34.2 °F 20.1 °F 49% 30.27 in 10.0 mi WNW 4.6 mph - N/A   Clear
1:15 AM 37.6 °F 34.0 °F 20.1 °F 49% 30.27 in 10.0 mi WNW 4.6 mph - N/A   Clear
1:35 AM 37.6 °F - 20.5 °F 50% 30.28 in 10.0 mi Calm Calm - N/A   Clear
1:55 AM 37.6 °F - 21.4 °F 52% 30.28 in 10.0 mi Calm Calm - N/A   Clear
2:15 AM 35.1 °F - 23.0 °F 61% 30.29 in 10.0 mi Calm Calm - N/A   Clear
2:35 AM 35.1 °F - 22.5 °F 60% 30.29 in 10.0 mi Calm Calm - N/A   Clear
2:55 AM 35.1 °F - 22.3 °F 60% 30.29 in 10.0 mi Calm Calm - N/A   Clear
3:15 AM 32.7 °F - 21.9 °F 64% 30.29 in 10.0 mi Calm Calm - N/A   Clear
3:35 AM 32.5 °F - 23.4 °F 69% 30.30 in 10.0 mi Calm Calm - N/A   Clear
3:55 AM 32.5 °F - 24.4 °F 72% 30.30 in 10.0 mi Calm Calm - N/A   Clear
4:15 AM 32.5 °F - 26.1 °F 77% 30.30 in 10.0 mi Calm Calm - N/A   Clear
4:35 AM 32.5 °F - 24.8 °F 73% 30.31 in 10.0 mi Calm Calm - N/A   Clear
4:55 AM 32.5 °F - 25.5 °F 75% 30.31 in 10.0 mi Calm Calm - N/A   Clear
5:15 AM 31.6 °F - 25.9 °F 79% 30.31 in 10.0 mi Calm Calm - N/A   Clear
5:35 AM 30.2 °F - 23.7 °F 77% 30.31 in 10.0 mi Calm Calm - N/A   Clear
5:55 AM 30.2 °F - 23.9 °F 77% 30.32 in 10.0 mi Calm Calm - N/A   Clear
6:15 AM 30.2 °F - 24.3 °F 79% 30.33 in 10.0 mi Calm Calm - N/A   Clear
6:35 AM 30.2 °F - 24.4 °F 79% 30.33 in 10.0 mi Calm Calm - N/A   Clear
6:55 AM 28.0 °F - 22.8 °F 81% 30.34 in 10.0 mi Calm Calm - N/A   Clear
7:15 AM 29.3 °F - 23.2 °F 78% 30.34 in 10.0 mi Calm Calm - N/A   Clear
7:35 AM 30.2 °F - 24.1 °F 78% 30.35 in 10.0 mi Calm Calm - N/A   Clear
7:55 AM 30.2 °F - 24.3 °F 79% 30.36 in 10.0 mi Calm Calm - N/A   Clear
8:15 AM 32.5 °F - 26.1 °F 77% 30.37 in 10.0 mi Calm Calm - N/A   Clear
8:35 AM 32.9 °F - 25.7 °F 75% 30.37 in 10.0 mi Calm Calm - N/A   Clear
8:55 AM 35.1 °F - 24.8 °F 66% 30.37 in 10.0 mi Calm Calm - N/A   Clear
9:15 AM 37.6 °F - 26.1 °F 63% 30.37 in 10.0 mi Calm Calm - N/A   Clear
9:35 AM 37.8 °F 33.3 °F 23.9 °F 57% 30.38 in 10.0 mi North 5.8 mph - N/A   Clear
9:55 AM 40.1 °F 36.9 °F 24.4 °F 54% 30.39 in 10.0 mi North 4.6 mph - N/A   Clear
10:15 AM 40.1 °F 38.0 °F 22.3 °F 49% 30.39 in 10.0 mi NNE 3.5 mph - N/A   Clear
10:55 AM 42.8 °F - 22.1 °F 44% 30.40 in 10.0 mi Calm Calm - N/A   Clear
11:15 AM 43.9 °F 42.3 °F 23.2 °F 44% 30.39 in 10.0 mi NNE 3.5 mph - N/A   Clear
11:55 AM 45.9 °F - 21.0 °F 37% 30.36 in 10.0 mi Calm Calm - N/A   Clear
12:15 PM 47.3 °F - 17.2 °F 30% 30.35 in 10.0 mi ENE 4.6 mph - N/A   Clear
12:35 PM 48.2 °F - 16.9 °F 29% 30.34 in 10.0 mi East 3.5 mph - N/A   Clear
12:55 PM 50.2 °F - 16.2 °F 26% 30.34 in 10.0 mi East 3.5 mph - N/A   Clear
1:15 PM 50.2 °F - 14.9 °F 25% 30.33 in 10.0 mi Calm Calm - N/A   Clear
1:35 PM 52.7 °F - 14.4 °F 22% 30.33 in 10.0 mi Calm Calm - N/A   Clear
1:55 PM 52.7 °F - 14.7 °F 22% 30.32 in 10.0 mi Calm Calm - N/A   Clear
2:15 PM 52.7 °F - 12.4 °F 20% 30.32 in 10.0 mi Calm Calm - N/A   Clear
2:35 PM 52.7 °F - 12.0 °F 20% 30.31 in 10.0 mi East 5.8 mph - N/A   Clear
2:55 PM 52.7 °F - 13.6 °F 21% 30.31 in 10.0 mi ESE 4.6 mph - N/A   Clear
3:15 PM 52.7 °F - 15.1 °F 23% 30.31 in 10.0 mi East 5.8 mph - N/A   Clear
3:35 PM 52.7 °F - 18.3 °F 26% 30.31 in 10.0 mi SE 4.6 mph - N/A   Clear
3:55 PM 52.7 °F - 20.3 °F 28% 30.32 in 10.0 mi SSE 3.5 mph - N/A   Clear
4:15 PM 50.9 °F - 17.6 °F 27% 30.32 in 10.0 mi SSE 3.5 mph - N/A   Clear
4:35 PM 50.2 °F - 19.0 °F 29% 30.32 in 10.0 mi Calm Calm - N/A   Clear
4:55 PM 48.0 °F - 13.8 °F 25% 30.32 in 10.0 mi SSE 4.6 mph - N/A   Clear
5:15 PM 45.9 °F 44.6 °F 18.3 °F 33% 30.32 in 10.0 mi SE 3.5 mph - N/A   Clear
5:35 PM 43.9 °F - 22.6 °F 43% 30.33 in 10.0 mi Calm Calm - N/A   Clear
6:15 PM 42.8 °F - 28.8 °F 58% 30.33 in 10.0 mi Calm Calm - N/A   Clear
6:35 PM 40.6 °F 38.6 °F 28.2 °F 61% 30.33 in 10.0 mi SE 3.5 mph - N/A   Clear
6:55 PM 42.8 °F 38.6 °F 29.7 °F 60% 30.33 in 10.0 mi SE 6.9 mph - N/A   Clear
7:15 PM 42.8 °F 40.1 °F 30.0 °F 61% 30.33 in 10.0 mi SSE 4.6 mph - N/A   Clear
7:35 PM 42.8 °F 40.1 °F 29.3 °F 59% 30.33 in 10.0 mi SSE 4.6 mph - N/A   Clear
7:55 PM 42.8 °F 39.3 °F 26.8 °F 53% 30.32 in 10.0 mi SE 5.8 mph - N/A   Clear
8:15 PM 42.8 °F 39.3 °F 26.2 °F 52% 30.31 in 10.0 mi SE 5.8 mph - N/A   Clear
8:55 PM 42.8 °F 39.3 °F 26.6 °F 53% 30.32 in 10.0 mi South 5.8 mph - N/A   Clear
9:15 PM 41.5 °F - 26.2 °F 55% 30.31 in 10.0 mi Calm Calm - N/A   Clear
9:35 PM 40.1 °F 38.0 °F 27.1 °F 60% 30.31 in 10.0 mi South 3.5 mph - N/A   Clear
9:55 PM 40.1 °F 38.0 °F 28.6 °F 63% 30.31 in 10.0 mi SSE 3.5 mph - N/A   Clear
10:15 PM 40.1 °F - 29.5 °F 66% 30.30 in 10.0 mi Calm Calm - N/A   Clear
10:35 PM 40.1 °F - 30.4 °F 68% 30.30 in 10.0 mi Calm Calm - N/A   Clear
10:55 PM 39.9 °F 37.8 °F 32.0 °F 73% 30.30 in 10.0 mi WSW 3.5 mph - N/A   Clear
11:15 PM 40.1 °F - 32.0 °F 73% 30.30 in 10.0 mi Calm Calm - N/A   Clear
11:35 PM 40.1 °F - 31.8 °F 72% 30.30 in 10.0 mi Calm Calm - N/A   Clear
11:55 PM 40.1 °F - 32.0 °F 73% 30.30 in 10.0 mi Calm Calm - N/A   Clear